»·PEaware :: WAT352 KBOI-KJAC

WAT352 :: KBOI-KJAC

FLIGHT INFORMATION

Flight Status: Arrived
Operator:
Walker Air Transport
More flights by this operator :: More flights under this callsign
Pilot: Matthew M. (27032)
Aircraft: DASSAULT AVIATION FALCON 50
(FA50)
More flights by this aircraft type
Origin: KBOI Boise Air Terminal/Gowen
United States
Destination: KJAC Jackson Hole
United States
More flights between these airports :: More routes between these airports
Route: +BOI3 FETHR DBS V298 DNW
File this flight plan on PilotEdge
Remarks: RMK / SIMBRIEF
Altitude:
(Current/Filed)
35,000ft
Speed:
(Current/Filed)
465kts
Departed: 18-Nov-20 10:43 AM
Arrived: 18-Nov-20 11:25 AM
Distance/Time
Traveled:
238nm/0:42
Distance/Time
To Go:
Arrived

Flight Plot

Page will automatically refresh every two minutes.

Flight plan parsing failed; only flown route is shown


Map Options




Map Legend


Flown Route
Filed Route
Departure Airport
Arrival Airport
Navaid (VOR, NDB)
Fix

Horizontal Profiles

Position Reports

Time Latitude Longitude Heading Altitude Ground
Speed
18-Nov-20 10:19 43.562235 -116.206241 270 2873ft 0kts
18-Nov-20 10:20 43.562235 -116.206241 270 2873ft 0kts
18-Nov-20 10:21 43.562235 -116.206241 270 2873ft 0kts
18-Nov-20 10:22 43.562235 -116.206241 270 2873ft 0kts
18-Nov-20 10:23 43.562235 -116.206241 270 2873ft 0kts
18-Nov-20 10:24 43.562235 -116.206241 270 2873ft 0kts
18-Nov-20 10:26 43.562235 -116.206241 270 2873ft 0kts
18-Nov-20 10:27 43.562235 -116.206241 270 2873ft 0kts
18-Nov-20 10:28 43.562235 -116.206241 270 2873ft 0kts
18-Nov-20 10:29 43.562235 -116.206241 270 2873ft 0kts
18-Nov-20 10:30 43.562235 -116.206241 270 2873ft 0kts
18-Nov-20 10:31 43.562235 -116.206241 270 2873ft 0kts
18-Nov-20 10:32 43.562235 -116.206241 270 2873ft 0kts
18-Nov-20 10:33 43.562235 -116.206241 270 2873ft 0kts
18-Nov-20 10:34 43.562235 -116.206241 270 2873ft 0kts
18-Nov-20 10:35 43.562235 -116.206241 270 2873ft 0kts
18-Nov-20 10:36 43.562235 -116.206241 270 2873ft 0kts
18-Nov-20 10:37 43.561135 -116.206507 251 2871ft 9kts
18-Nov-20 10:38 43.562523 -116.210892 295 2868ft 10kts
18-Nov-20 10:39 43.564844 -116.217727 296 2861ft 20kts
18-Nov-20 10:39 43.566760 -116.223297 297 2855ft 21kts
18-Nov-20 10:41 43.569815 -116.232209 294 2837ft 25kts
18-Nov-20 10:42 43.570310 -116.236500 170 2835ft 8kts
18-Nov-20 10:43 43.559433 -116.203681 112 4271ft 162kts
18-Nov-20 10:43 43.542521 -116.139652 113 6640ft 252kts
18-Nov-20 10:45 43.513125 -116.027092 103 11624ft 303kts
18-Nov-20 10:46 43.526722 -115.892581 85 13752ft 398kts
18-Nov-20 10:46 43.536286 -115.763542 87 16319ft 421kts
18-Nov-20 10:48 43.551306 -115.570148 87 19506ft 446kts
18-Nov-20 10:48 43.562452 -115.426062 87 21538ft 458kts
18-Nov-20 10:49 43.581257 -115.249356 80 23519ft 477kts
18-Nov-20 10:50 43.613788 -115.069011 80 25794ft 485kts
18-Nov-20 10:51 43.646255 -114.888140 80 28163ft 487kts
18-Nov-20 10:52 43.678508 -114.706309 81 30411ft 487kts
18-Nov-20 10:53 43.710353 -114.524978 81 32630ft 483kts
18-Nov-20 10:54 43.741594 -114.345189 82 34646ft 481kts
18-Nov-20 10:55 43.773473 -114.158935 82 34961ft 516kts
18-Nov-20 10:56 43.807294 -113.960042 81 34945ft 545kts
18-Nov-20 10:57 43.841580 -113.757070 81 34926ft 535kts
18-Nov-20 10:58 43.874745 -113.557690 82 34929ft 529kts
18-Nov-20 10:59 43.907236 -113.359816 82 34933ft 526kts
18-Nov-20 11:00 43.939322 -113.162133 83 34924ft 527kts
18-Nov-20 11:01 43.971261 -112.962989 83 34930ft 531kts
18-Nov-20 11:02 44.003513 -112.758877 84 33821ft 553kts
18-Nov-20 11:03 44.035779 -112.553842 84 31762ft 539kts
18-Nov-20 11:04 44.067058 -112.351473 85 29402ft 536kts
18-Nov-20 11:05 44.080612 -112.151245 106 26952ft 503kts
18-Nov-20 11:06 44.056776 -111.963421 108 24511ft 489kts
18-Nov-20 11:07 44.032175 -111.779864 107 22072ft 479kts
18-Nov-20 11:08 44.008560 -111.604498 106 19918ft 446kts
18-Nov-20 11:09 43.986073 -111.440142 105 17965ft 423kts
18-Nov-20 11:10 43.977060 -111.280064 91 16020ft 415kts
18-Nov-20 11:11 43.981576 -111.121923 91 14987ft 406kts
18-Nov-20 11:12 43.986190 -110.963452 91 14988ft 415kts
18-Nov-20 11:13 43.991213 -110.802137 91 14989ft 421kts
18-Nov-20 11:14 43.981073 -110.654031 120 14604ft 340kts
18-Nov-20 11:15 43.946851 -110.543694 120 13974ft 280kts
18-Nov-20 11:16 43.907068 -110.461794 173 13425ft 237kts
18-Nov-20 11:17 43.852904 -110.489993 219 11914ft 211kts
18-Nov-20 11:18 43.809998 -110.544068 239 10979ft 195kts
18-Nov-20 11:19 43.786943 -110.610929 240 10042ft 194kts
18-Nov-20 11:20 43.746867 -110.660839 218 8966ft 200kts
18-Nov-20 11:21 43.699148 -110.692827 201 8519ft 185kts
18-Nov-20 11:22 43.657344 -110.713326 203 7339ft 117kts
18-Nov-20 11:23 43.626593 -110.728223 203 6764ft 116kts
18-Nov-20 11:24 43.601979 -110.740365 201 6428ft 31kts
18-Nov-20 11:25 43.598846 -110.739646 74 6428ft 8kts
18-Nov-20 11:26 43.599065 -110.738904 198 6428ft 0kts
18-Nov-20 11:27 43.599065 -110.738904 198 6428ft 0kts
18-Nov-20 11:28 43.599065 -110.738904 198 6428ft 0kts
18-Nov-20 11:29 43.599065 -110.738904 198 6428ft 0kts
18-Nov-20 11:30 43.599065 -110.738904 198 6428ft 0kts
18-Nov-20 11:31 43.599065 -110.738904 198 6428ft 0kts
18-Nov-20 11:32 43.599065 -110.738904 198 6428ft 0kts
18-Nov-20 11:33 43.599065 -110.738904 198 6428ft 0kts
18-Nov-20 11:34 43.599065 -110.738904 198 6428ft 0kts
18-Nov-20 11:35 43.599065 -110.738904 198 6428ft 0kts
18-Nov-20 11:36 43.599065 -110.738904 198 6428ft 0kts
18-Nov-20 11:37 43.599065 -110.738904 198 6428ft 0kts
18-Nov-20 11:38 43.599065 -110.738904 198 6428ft 0kts

Navigation Log

Ident Type
Flight plan parsing failed, navigation log unavailable